Nearby METAR Reports

 

EGQL - Leuchars Raf, United Kingdom
Distance from station: SW 17km
Updated: 20/09/2020 17:50
Overcast
Overcast
 Wind from ESE
Wind: ESE 9 mph , 15 km/h
Temperature: 14°C
Dew Point: 12°C
Humidity: 88%
Barometer: 1022 hPa
Clouds: Overcast
Visibility: 6 miles , 10 km
Cloud details: Overcast 610 m
2020/09/20 15:50 EGQL 201550Z 12008KT 9999 OVC020 14/12 Q1022 WHT
EGPN - Dundee/Riverside, United Kingdom
Distance from station: WSW 20km
Updated: 20/09/2020 17:50
Mostly cloudy
Mostly cloudy
 Wind from varies
Wind: varies 2 mph , 4 km/h
Temperature: 15°C
Dew Point: 12°C
Humidity: 82%
Barometer: 1022 hPa
Clouds: Mostly cloudy
Visibility: 6 miles , 10 km
Cloud details: Mostly cloudy 549 m
2020/09/20 15:50 EGPN 201550Z VRB02KT 9999 BKN018 15/12 Q1022
 
EGPH - Edinburgh Airpor, United Kingdom
Distance from station: SSW 74km
Updated: 20/09/2020 17:50
Clear
Clear
 Wind from NE
Wind: NE 9 mph , 15 km/h
Temperature: 15°C
Dew Point: 13°C
Humidity: 88%
Barometer: 1022 hPa
Summary: Clear
Visibility: greater than 7 miles , 10 km
2020/09/20 15:50 EGPH 201550Z 05008KT CAVOK 15/13 Q1022
EGPD - Aberdeen/Dyce, United Kingdom
Distance from station: NNE 82km
Updated: 20/09/2020 17:50
Clear
Clear
 Wind from SSE
Wind: SSE 13 mph , 20 km/h
Temperature: 16°C
Dew Point: 12°C
Humidity: 77%
Barometer: 1021 hPa
Clouds: Clear
Visibility: 6 miles , 10 km
2020/09/20 15:50 EGPD 201550Z AUTO 16011KT 9999 NCD 16/12 Q1021